createdAt,value
2023-02-21T00:02:41.343Z,6.85
2023-02-21T00:05:26.297Z,6.86
2023-02-21T00:08:11.390Z,6.87
2023-02-21T00:10:56.443Z,6.86
2023-02-21T00:13:41.775Z,6.85
2023-02-21T00:16:26.896Z,6.85
2023-02-21T00:19:12.022Z,6.88
2023-02-21T00:21:56.929Z,6.89
2023-02-21T00:24:42.041Z,6.86
2023-02-21T00:27:26.964Z,6.86
2023-02-21T00:30:12.251Z,6.91
2023-02-21T00:32:57.401Z,6.87
2023-02-21T00:35:42.529Z,6.87
2023-02-21T00:38:28.664Z,6.98
2023-02-21T00:41:14.188Z,6.90
2023-02-21T00:43:59.598Z,6.94
2023-02-21T00:46:44.700Z,6.90
2023-02-21T00:49:29.561Z,6.90
2023-02-21T00:52:14.588Z,6.90
2023-02-21T00:54:59.958Z,6.93
2023-02-21T00:57:45.125Z,6.94
2023-02-21T01:00:41.074Z,6.98
2023-02-21T01:03:26.213Z,6.98
2023-02-21T01:06:11.416Z,6.96
2023-02-21T01:09:00.097Z,7.02
2023-02-21T01:11:45.200Z,6.95
2023-02-21T01:14:30.379Z,7.04
2023-02-21T01:17:15.535Z,7.01
2023-02-21T01:20:01.173Z,6.98
2023-02-21T01:22:53.931Z,6.98
2023-02-21T01:25:39.865Z,6.94
2023-02-21T01:28:25.051Z,7.06
2023-02-21T01:31:10.102Z,7.03
2023-02-21T01:33:58.781Z,7.03
2023-02-21T01:36:43.524Z,7.10
2023-02-21T01:39:29.293Z,7.00
2023-02-21T01:42:14.738Z,7.03
2023-02-21T01:45:03.363Z,7.00
2023-02-21T01:47:48.457Z,6.98
2023-02-21T01:50:39.782Z,7.02
2023-02-21T01:53:32.360Z,6.97
2023-02-21T01:56:17.518Z,7.03
2023-02-21T01:59:02.554Z,6.94
2023-02-21T02:02:05.049Z,6.95
2023-02-21T02:04:50.301Z,7.00
2023-02-21T02:07:35.439Z,6.94
2023-02-21T02:10:20.538Z,6.96
2023-02-21T02:13:24.843Z,7.00
2023-02-21T02:16:13.123Z,6.96
2023-02-21T02:18:56.329Z,7.00
2023-02-21T02:21:42.798Z,7.04
2023-02-21T02:24:28.110Z,7.06
2023-02-21T02:27:06.770Z,6.99
2023-02-21T02:29:38.614Z,6.95
2023-02-21T02:32:23.631Z,7.01
2023-02-21T02:34:52.870Z,7.01
2023-02-21T02:37:51.762Z,6.94
2023-02-21T02:40:32.938Z,6.88
2023-02-21T02:43:20.947Z,6.94
2023-02-21T02:46:09.740Z,6.91
2023-02-21T02:48:39.864Z,6.87
2023-02-21T02:51:08.530Z,6.91
2023-02-21T02:53:35.994Z,6.88
2023-02-21T02:56:04.470Z,6.90
2023-02-21T02:58:33.037Z,6.92
2023-02-21T03:01:25.598Z,6.93
2023-02-21T03:04:05.177Z,6.92
2023-02-21T03:06:59.542Z,6.89
2023-02-21T03:09:30.199Z,6.92
2023-02-21T03:12:06.728Z,6.93
2023-02-21T03:14:43.634Z,6.94
2023-02-21T03:17:12.177Z,6.94
2023-02-21T03:19:40.214Z,6.87
2023-02-21T03:22:21.151Z,6.92
2023-02-21T03:24:48.543Z,6.88
2023-02-21T03:27:45.307Z,6.92
2023-02-21T03:30:11.987Z,7.00
2023-02-21T03:32:51.996Z,7.02
2023-02-21T03:35:19.443Z,6.93
2023-02-21T03:37:52.205Z,6.93
2023-02-21T03:40:30.074Z,6.89
2023-02-21T03:42:57.279Z,6.89
2023-02-21T03:45:23.824Z,6.93
2023-02-21T03:47:50.568Z,6.92
2023-02-21T03:50:17.127Z,6.95
2023-02-21T03:52:43.616Z,6.97
2023-02-21T03:55:10.126Z,6.91
2023-02-21T03:57:36.622Z,6.91
2023-02-21T04:00:03.450Z,6.95
2023-02-21T04:02:29.985Z,6.94
2023-02-21T04:04:56.442Z,7.03
2023-02-21T04:07:22.932Z,7.04
2023-02-21T04:09:49.452Z,7.01
2023-02-21T04:12:16.014Z,6.98
2023-02-21T04:14:42.480Z,7.00
2023-02-21T04:17:09.216Z,6.89
2023-02-21T04:19:35.675Z,6.94
2023-02-21T04:22:02.247Z,6.89
2023-02-21T04:24:28.823Z,6.94
2023-02-21T04:26:55.299Z,6.91
2023-02-21T04:29:21.827Z,6.91
2023-02-21T04:31:48.669Z,6.95
2023-02-21T04:34:15.305Z,7.02
2023-02-21T04:36:41.826Z,7.00
2023-02-21T04:39:08.650Z,6.95
2023-02-21T04:41:35.206Z,6.96
2023-02-21T04:44:02.008Z,6.88
2023-02-21T04:46:28.764Z,6.91
2023-02-21T04:48:55.245Z,6.88
2023-02-21T04:51:22.705Z,6.90
2023-02-21T04:53:49.424Z,6.92
2023-02-21T04:56:16.109Z,6.90
2023-02-21T04:58:45.573Z,6.91
2023-02-21T05:01:12.735Z,6.92
2023-02-21T05:03:39.462Z,6.92
2023-02-21T05:06:06.096Z,6.91
2023-02-21T05:08:32.589Z,6.88
2023-02-21T05:10:59.058Z,6.93
2023-02-21T05:13:25.541Z,6.93
2023-02-21T05:15:52.013Z,6.87
2023-02-21T05:18:22.643Z,6.86
2023-02-21T05:20:50.124Z,6.85
2023-02-21T05:23:18.932Z,6.80
2023-02-21T05:25:45.474Z,6.85
2023-02-21T05:28:12.918Z,6.88
2023-02-21T05:30:53.079Z,6.82
2023-02-21T05:33:20.010Z,6.81
2023-02-21T05:35:49.360Z,6.80
2023-02-21T05:38:17.021Z,6.80
2023-02-21T05:40:43.489Z,6.87
2023-02-21T05:43:09.965Z,6.87
2023-02-21T05:45:36.465Z,6.87
2023-02-21T05:48:03.163Z,6.84
2023-02-21T05:50:29.904Z,6.84
2023-02-21T05:52:57.066Z,6.82
2023-02-21T05:55:23.851Z,6.83
2023-02-21T05:57:50.335Z,6.79
2023-02-21T06:00:23.979Z,6.87
2023-02-21T06:02:52.128Z,6.86
2023-02-21T06:05:19.269Z,6.82
2023-02-21T06:07:46.156Z,6.94
2023-02-21T06:10:12.634Z,6.87
2023-02-21T06:12:39.243Z,6.86
2023-02-21T06:15:07.298Z,6.80
2023-02-21T06:17:34.443Z,6.84
2023-02-21T06:20:00.908Z,6.88
2023-02-21T06:22:27.382Z,6.88
2023-02-21T06:24:53.878Z,6.87
2023-02-21T06:27:20.613Z,6.83
2023-02-21T06:29:47.308Z,6.86
2023-02-21T06:32:13.850Z,6.80
2023-02-21T06:34:40.613Z,6.85
2023-02-21T06:37:07.522Z,6.81
2023-02-21T06:39:33.984Z,6.80
2023-02-21T06:42:00.482Z,6.79
2023-02-21T06:44:27.029Z,6.81
2023-02-21T06:46:56.104Z,6.87
2023-02-21T06:49:22.854Z,6.78
2023-02-21T06:51:49.351Z,6.73
2023-02-21T06:54:17.076Z,6.83
2023-02-21T06:56:44.877Z,6.79
2023-02-21T06:59:11.338Z,6.81
2023-02-21T07:01:37.826Z,6.78
2023-02-21T07:04:04.309Z,6.74
2023-02-21T07:06:33.232Z,6.82
2023-02-21T07:08:59.706Z,6.78
2023-02-21T07:11:26.170Z,6.81
2023-02-21T07:13:53.269Z,6.83
2023-02-21T07:16:20.234Z,6.76
2023-02-21T07:18:46.929Z,6.77
2023-02-21T07:21:14.013Z,6.84
2023-02-21T07:23:40.672Z,6.81
2023-02-21T07:26:07.397Z,6.79
2023-02-21T07:28:33.916Z,6.78
2023-02-21T07:31:00.494Z,6.85
2023-02-21T07:33:27.348Z,6.88
2023-02-21T07:35:53.849Z,6.84
2023-02-21T07:38:24.564Z,6.77
2023-02-21T07:40:51.097Z,6.81
2023-02-21T07:43:17.595Z,6.81
2023-02-21T07:45:44.218Z,6.89
2023-02-21T07:48:14.297Z,6.89
2023-02-21T07:50:41.676Z,6.93
2023-02-21T07:53:10.329Z,6.93
2023-02-21T07:55:37.635Z,6.87
2023-02-21T07:58:04.427Z,6.87
2023-02-21T08:00:31.454Z,6.87
2023-02-21T08:02:57.942Z,6.94
2023-02-21T08:05:24.392Z,6.84
2023-02-21T08:07:50.986Z,6.86
2023-02-21T08:10:25.561Z,6.86
2023-02-21T08:12:52.144Z,6.95
2023-02-21T08:15:18.653Z,6.90
2023-02-21T08:17:48.269Z,6.92
2023-02-21T08:20:14.742Z,6.90
2023-02-21T08:22:41.241Z,6.95
2023-02-21T08:25:07.766Z,7.02
2023-02-21T08:27:34.237Z,7.02
2023-02-21T08:30:00.736Z,7.03
2023-02-21T08:32:27.506Z,7.06
2023-02-21T08:34:53.982Z,7.17
2023-02-21T08:37:20.669Z,7.15
2023-02-21T08:39:47.820Z,7.14
2023-02-21T08:42:14.323Z,7.16
2023-02-21T08:44:44.453Z,7.14
2023-02-21T08:47:11.545Z,7.19
2023-02-21T08:49:42.545Z,7.23
2023-02-21T08:52:09.040Z,7.33
2023-02-21T08:54:35.519Z,7.23
2023-02-21T08:57:02.034Z,7.41
2023-02-21T08:59:30.818Z,7.40
2023-02-21T09:01:57.306Z,7.41
2023-02-21T09:04:24.705Z,7.56
2023-02-21T09:06:51.293Z,7.36
2023-02-21T09:09:17.768Z,7.44
2023-02-21T09:11:47.116Z,7.53
2023-02-21T09:14:13.689Z,7.50
2023-02-21T09:16:40.263Z,7.53
2023-02-21T09:19:07.702Z,7.69
2023-02-21T09:21:34.173Z,7.85
2023-02-21T09:24:02.770Z,8.00
2023-02-21T09:26:31.939Z,7.98
2023-02-21T09:28:58.460Z,8.03
2023-02-21T09:31:25.005Z,8.01
2023-02-21T09:33:51.500Z,7.98
2023-02-21T09:36:23.554Z,7.98
2023-02-21T09:38:51.143Z,7.96
2023-02-21T09:41:18.981Z,7.86
2023-02-21T09:43:46.900Z,7.89
2023-02-21T09:46:16.681Z,7.87
2023-02-21T09:48:43.268Z,7.87
2023-02-21T09:51:09.822Z,7.90
2023-02-21T09:53:40.812Z,7.97
2023-02-21T09:56:30.919Z,7.97
2023-02-21T09:58:58.875Z,8.16
2023-02-21T10:01:40.549Z,8.11
2023-02-21T10:04:28.449Z,8.06
2023-02-21T10:06:58.223Z,8.07
2023-02-21T10:09:37.161Z,8.07
2023-02-21T10:12:05.945Z,8.11
2023-02-21T10:14:43.700Z,8.12
2023-02-21T10:17:19.193Z,8.22
2023-02-21T10:19:48.806Z,8.22
2023-02-21T10:22:26.952Z,8.23
2023-02-21T10:24:53.479Z,8.06
2023-02-21T10:27:24.864Z,8.14
2023-02-21T10:29:58.279Z,8.08
2023-02-21T10:32:25.426Z,8.03
2023-02-21T10:34:51.995Z,8.12
2023-02-21T10:37:26.255Z,8.16
2023-02-21T10:39:54.901Z,8.24
2023-02-21T10:42:45.709Z,8.26
2023-02-21T10:45:13.021Z,8.30
2023-02-21T10:47:48.220Z,8.30
2023-02-21T10:50:14.705Z,8.30
2023-02-21T10:52:48.197Z,8.32
2023-02-21T10:55:31.913Z,8.36
2023-02-21T10:57:59.287Z,8.33
2023-02-21T11:00:28.431Z,8.35
2023-02-21T11:03:02.325Z,8.41
2023-02-21T11:05:28.806Z,8.34
2023-02-21T11:08:09.046Z,8.32
2023-02-21T11:10:42.130Z,8.56
2023-02-21T11:13:17.053Z,8.63
2023-02-21T11:15:44.824Z,8.63
2023-02-21T11:18:17.058Z,8.45
2023-02-21T11:20:44.064Z,8.52
2023-02-21T11:23:30.091Z,8.59
2023-02-21T11:26:07.976Z,8.55
2023-02-21T11:28:43.980Z,8.43
2023-02-21T11:31:21.780Z,8.56
2023-02-21T11:33:58.648Z,8.62
2023-02-21T11:36:39.698Z,8.63
2023-02-21T11:39:23.628Z,8.71
2023-02-21T11:41:50.910Z,8.60
2023-02-21T11:44:35.027Z,8.67
2023-02-21T11:47:09.035Z,8.78
2023-02-21T11:49:56.452Z,8.70
2023-02-21T11:52:29.853Z,8.73
2023-02-21T11:54:56.348Z,8.71
2023-02-21T11:57:29.476Z,8.93
2023-02-21T12:00:10.139Z,8.96
2023-02-21T12:02:45.750Z,8.78
2023-02-21T12:05:21.463Z,8.61
2023-02-21T12:08:15.747Z,8.64
2023-02-21T12:11:09.964Z,8.72
2023-02-21T12:13:50.034Z,8.79
2023-02-21T12:16:21.953Z,8.83
2023-02-21T12:19:09.820Z,8.84
2023-02-21T12:22:00.889Z,8.72
2023-02-21T12:24:39.473Z,8.71
2023-02-21T12:27:11.882Z,8.70
2023-02-21T12:30:03.357Z,8.74
2023-02-21T12:32:53.046Z,8.80
2023-02-21T12:35:31.835Z,8.74
2023-02-21T12:38:07.550Z,8.66
2023-02-21T12:40:37.002Z,8.76
2023-02-21T12:43:31.877Z,8.75
2023-02-21T12:46:10.040Z,8.58
2023-02-21T12:49:18.208Z,8.44
2023-02-21T12:51:48.296Z,8.47
2023-02-21T12:54:17.336Z,8.50
2023-02-21T12:56:54.161Z,8.60
2023-02-21T12:59:52.394Z,8.52
2023-02-21T13:02:27.054Z,8.56
2023-02-21T13:05:02.915Z,8.52
2023-02-21T13:07:38.109Z,8.60
2023-02-21T13:10:08.978Z,8.57
2023-02-21T13:12:48.378Z,8.62
2023-02-21T13:15:20.838Z,8.53
2023-02-21T13:18:05.644Z,8.53
2023-02-21T13:20:37.186Z,8.54
2023-02-21T13:23:03.654Z,8.42
2023-02-21T13:25:56.965Z,8.30
2023-02-21T13:28:24.492Z,8.35
2023-02-21T13:30:52.203Z,8.25
2023-02-21T13:33:29.435Z,8.30
2023-02-21T13:35:59.797Z,8.38
2023-02-21T13:38:29.800Z,8.36
2023-02-21T13:41:03.562Z,8.48
2023-02-21T13:43:31.473Z,8.53
2023-02-21T13:46:42.892Z,8.38
2023-02-21T13:49:48.386Z,8.27
2023-02-21T13:52:23.799Z,8.30
2023-02-21T13:55:15.718Z,8.30
2023-02-21T13:57:56.636Z,8.04
2023-02-21T14:00:25.992Z,8.11
2023-02-21T14:02:55.127Z,8.20
2023-02-21T14:05:21.688Z,8.13
2023-02-21T14:07:51.292Z,8.12
2023-02-21T14:10:39.283Z,8.13
2023-02-21T14:13:08.547Z,8.17
2023-02-21T14:15:43.413Z,8.13
2023-02-21T14:18:35.015Z,8.18
2023-02-21T14:21:01.536Z,8.27
2023-02-21T14:23:36.951Z,8.33
2023-02-21T14:26:04.759Z,8.26
2023-02-21T14:28:59.528Z,8.30
2023-02-21T14:31:49.022Z,8.36
2023-02-21T14:34:20.983Z,8.17
2023-02-21T14:36:48.757Z,8.19
2023-02-21T14:39:15.225Z,8.23
2023-02-21T14:42:07.086Z,8.19
2023-02-21T14:44:36.139Z,8.17
2023-02-21T14:47:25.581Z,8.07
2023-02-21T14:50:13.732Z,8.13
2023-02-21T14:52:49.122Z,8.13
2023-02-21T14:55:40.941Z,8.21
2023-02-21T14:58:16.306Z,8.25
2023-02-21T15:01:00.388Z,8.30
2023-02-21T15:03:41.767Z,8.29
2023-02-21T15:06:12.608Z,8.18
2023-02-21T15:08:41.028Z,8.03
2023-02-21T15:11:30.062Z,8.06
2023-02-21T15:14:22.807Z,8.06
2023-02-21T15:16:55.415Z,7.97
2023-02-21T15:19:33.254Z,8.02
2023-02-21T15:22:26.670Z,7.98
2023-02-21T15:25:08.101Z,7.97
2023-02-21T15:27:43.497Z,7.98
2023-02-21T15:30:37.805Z,7.98
2023-02-21T15:33:19.396Z,7.87
2023-02-21T15:36:09.640Z,8.00
2023-02-21T15:39:10.944Z,7.88
2023-02-21T15:41:43.273Z,7.86
2023-02-21T15:44:37.711Z,7.81
2023-02-21T15:47:18.706Z,7.71
2023-02-21T15:49:47.636Z,7.76
2023-02-21T15:52:35.690Z,7.79
2023-02-21T15:55:20.264Z,7.75
2023-02-21T15:57:47.595Z,7.80
2023-02-21T16:00:23.746Z,7.76
2023-02-21T16:02:50.325Z,7.77
2023-02-21T16:05:28.509Z,7.77
2023-02-21T16:08:00.817Z,7.77
2023-02-21T16:10:27.639Z,7.68
2023-02-21T16:13:00.268Z,7.76
2023-02-21T16:15:28.850Z,7.70
2023-02-21T16:17:57.182Z,7.71
2023-02-21T16:20:44.083Z,7.65
2023-02-21T16:23:22.651Z,7.65
2023-02-21T16:26:03.309Z,7.64
2023-02-21T16:28:30.297Z,7.64
2023-02-21T16:31:01.345Z,7.65
2023-02-21T16:33:28.200Z,7.62
2023-02-21T16:35:54.770Z,7.49
2023-02-21T16:38:22.071Z,7.51
2023-02-21T16:40:48.589Z,7.57
2023-02-21T16:43:23.534Z,7.56
2023-02-21T16:45:51.605Z,7.58
2023-02-21T16:48:22.102Z,7.55
2023-02-21T16:50:49.720Z,7.50
2023-02-21T16:53:17.122Z,7.68
2023-02-21T16:55:43.777Z,7.65
2023-02-21T16:58:27.408Z,7.73
2023-02-21T17:00:55.426Z,7.64
2023-02-21T17:03:22.030Z,7.60
2023-02-21T17:05:48.833Z,7.48
2023-02-21T17:08:15.297Z,7.56
2023-02-21T17:10:42.013Z,7.65
2023-02-21T17:13:08.476Z,7.70
2023-02-21T17:15:35.001Z,7.60
2023-02-21T17:18:01.504Z,7.51
2023-02-21T17:20:27.978Z,7.52
2023-02-21T17:22:54.796Z,7.46
2023-02-21T17:25:21.954Z,7.45
2023-02-21T17:27:48.754Z,7.44
2023-02-21T17:30:15.771Z,7.47
2023-02-21T17:32:43.644Z,7.46
2023-02-21T17:35:10.399Z,7.41
2023-02-21T17:37:36.884Z,7.50
2023-02-21T17:40:03.705Z,7.45
2023-02-21T17:42:30.191Z,7.40
2023-02-21T17:44:57.488Z,7.43
2023-02-21T17:47:24.020Z,7.44
2023-02-21T17:49:50.980Z,7.40
2023-02-21T17:52:17.507Z,7.46
2023-02-21T17:54:44.006Z,7.43
2023-02-21T17:57:10.778Z,7.36
2023-02-21T17:59:37.629Z,7.53
2023-02-21T18:02:04.246Z,7.56
2023-02-21T18:04:33.446Z,7.53
2023-02-21T18:06:59.995Z,7.53
2023-02-21T18:09:26.473Z,7.61
2023-02-21T18:11:54.283Z,7.46
2023-02-21T18:14:21.306Z,7.48
2023-02-21T18:16:48.096Z,7.63
2023-02-21T18:19:15.165Z,7.63
2023-02-21T18:21:42.548Z,7.58
2023-02-21T18:24:09.182Z,7.52
2023-02-21T18:26:35.669Z,7.50
2023-02-21T18:29:02.139Z,7.46
2023-02-21T18:31:28.652Z,7.42
2023-02-21T18:33:55.145Z,7.42
2023-02-21T18:36:21.628Z,7.47
2023-02-21T18:38:49.488Z,7.51
2023-02-21T18:41:17.747Z,7.48
2023-02-21T18:43:44.780Z,7.49
2023-02-21T18:46:12.602Z,7.38
2023-02-21T18:48:42.006Z,7.30
2023-02-21T18:51:09.896Z,7.29
2023-02-21T18:53:36.838Z,7.32
2023-02-21T18:56:05.704Z,7.22
2023-02-21T18:58:33.005Z,7.21
2023-02-21T19:00:59.558Z,7.32
2023-02-21T19:03:26.340Z,7.44
2023-02-21T19:05:53.589Z,7.44
2023-02-21T19:08:21.430Z,7.22
2023-02-21T19:10:48.781Z,7.13
2023-02-21T19:13:16.028Z,7.19
2023-02-21T19:15:42.724Z,7.28
2023-02-21T19:18:09.179Z,7.30
2023-02-21T19:20:36.749Z,7.14
2023-02-21T19:23:03.477Z,7.07
2023-02-21T19:25:30.971Z,7.16
2023-02-21T19:28:00.513Z,7.23
2023-02-21T19:30:34.110Z,7.28
2023-02-21T19:33:01.135Z,7.39
2023-02-21T19:35:28.142Z,7.42
2023-02-21T19:37:55.242Z,7.19
2023-02-21T19:40:22.132Z,7.12
2023-02-21T19:42:48.707Z,7.11
2023-02-21T19:45:16.119Z,7.23
2023-02-21T19:47:42.759Z,7.28
2023-02-21T19:50:09.559Z,7.25
2023-02-21T19:52:36.063Z,7.13
2023-02-21T19:55:02.541Z,7.14
2023-02-21T19:57:29.034Z,7.13
2023-02-21T19:59:55.494Z,7.26
2023-02-21T20:02:21.961Z,7.29
2023-02-21T20:04:49.528Z,7.36
2023-02-21T20:07:16.524Z,7.26
2023-02-21T20:09:45.215Z,7.28
2023-02-21T20:12:11.760Z,7.23
2023-02-21T20:14:38.223Z,7.16
2023-02-21T20:17:05.008Z,7.01
2023-02-21T20:19:31.677Z,6.93
2023-02-21T20:21:58.167Z,6.91
2023-02-21T20:24:24.682Z,6.88
2023-02-21T20:26:51.981Z,6.82
2023-02-21T20:29:19.135Z,6.81
2023-02-21T20:31:45.741Z,6.74
2023-02-21T20:34:12.489Z,6.72
2023-02-21T20:36:41.036Z,6.73
2023-02-21T20:39:09.430Z,6.70
2023-02-21T20:41:39.055Z,6.62
2023-02-21T20:44:05.742Z,6.69
2023-02-21T20:46:34.852Z,6.61
2023-02-21T20:49:01.945Z,6.76
2023-02-21T20:51:33.187Z,6.97
2023-02-21T20:54:00.290Z,7.00
2023-02-21T20:56:31.643Z,6.93
2023-02-21T20:58:58.341Z,6.76
2023-02-21T21:01:25.651Z,6.91
2023-02-21T21:03:52.496Z,6.88
2023-02-21T21:06:19.034Z,6.92
2023-02-21T21:08:45.597Z,6.95
2023-02-21T21:11:12.098Z,7.10
2023-02-21T21:13:39.609Z,7.07
2023-02-21T21:16:06.563Z,7.13
2023-02-21T21:18:33.156Z,7.06
2023-02-21T21:20:59.762Z,6.91
2023-02-21T21:23:26.808Z,6.84
2023-02-21T21:25:53.269Z,6.81
2023-02-21T21:28:19.787Z,6.76
2023-02-21T21:30:46.879Z,6.77
2023-02-21T21:33:18.809Z,6.80
2023-02-21T21:35:45.311Z,6.80
2023-02-21T21:38:11.786Z,6.82
2023-02-21T21:40:38.260Z,6.83
2023-02-21T21:43:07.565Z,6.84
2023-02-21T21:45:44.053Z,6.81
2023-02-21T21:48:10.634Z,6.80
2023-02-21T21:50:37.103Z,6.79
2023-02-21T21:53:03.573Z,6.82
2023-02-21T21:55:30.407Z,6.83
2023-02-21T21:57:58.588Z,6.85
2023-02-21T22:00:26.473Z,6.86
2023-02-21T22:02:57.139Z,6.86
2023-02-21T22:05:30.794Z,6.84
2023-02-21T22:07:57.593Z,6.79
2023-02-21T22:10:24.880Z,6.81
2023-02-21T22:12:51.955Z,6.84
2023-02-21T22:15:22.999Z,6.86
2023-02-21T22:17:49.529Z,6.81
2023-02-21T22:20:17.710Z,6.82
2023-02-21T22:22:50.306Z,6.83
2023-02-21T22:25:18.956Z,6.83
2023-02-21T22:27:46.440Z,6.87
2023-02-21T22:30:13.818Z,6.89
2023-02-21T22:32:42.779Z,6.88
2023-02-21T22:35:18.043Z,6.89
2023-02-21T22:37:50.718Z,6.97
2023-02-21T22:40:24.056Z,6.95
2023-02-21T22:42:51.985Z,6.96
2023-02-21T22:45:19.273Z,6.96
2023-02-21T22:47:46.591Z,6.94
2023-02-21T22:50:15.127Z,6.93
2023-02-21T22:52:41.840Z,6.96
2023-02-21T22:55:08.451Z,6.94
2023-02-21T22:57:35.627Z,6.90
2023-02-21T23:00:02.137Z,6.93
2023-02-21T23:02:28.913Z,6.90
2023-02-21T23:04:58.092Z,6.89
2023-02-21T23:07:24.652Z,6.89
2023-02-21T23:09:52.013Z,6.92
2023-02-21T23:12:19.087Z,6.97
2023-02-21T23:14:48.034Z,6.93
2023-02-21T23:17:15.424Z,6.92
2023-02-21T23:19:41.916Z,6.91
2023-02-21T23:22:09.979Z,6.92
2023-02-21T23:24:36.708Z,6.90
2023-02-21T23:27:03.240Z,6.90
2023-02-21T23:29:30.935Z,6.92
2023-02-21T23:32:09.099Z,6.93
2023-02-21T23:34:41.628Z,6.94
2023-02-21T23:37:08.615Z,6.96
2023-02-21T23:39:35.149Z,6.97
2023-02-21T23:42:01.618Z,6.92
2023-02-21T23:44:28.125Z,6.95
2023-02-21T23:46:54.730Z,6.89
2023-02-21T23:49:24.339Z,6.92
2023-02-21T23:51:53.551Z,6.93
2023-02-21T23:54:21.087Z,6.91
2023-02-21T23:56:48.273Z,6.89
2023-02-21T23:59:16.089Z,6.91
